메인 페이지
METAR-TAF:

METAR-TAF

공항 :

Plainview, 텍사스, 미국

위도: 34-10-05N, 경도: 101-43-02W, 고도: 1028m

현재 날씨관측

예보는 25분 전, 18:35시(UTC)에 발표되었습니다.
동남동5kt
온도 8°C
습도 49%
기압 1018 hPa
시정: 16.1km
고도 4200ft 상공 구름 많음

METAR: KPVW 041835Z AUTO 11005KT 10SM BKN042 08/M02 A3006 RMK AO2 T00761020

시각: 14:00 (19:00 UTC)

예보

예보는 1 시간 30분 전, 17:30시(UTC)에 발표되었습니다.
예보 대상 시간: 04일 18시부터 05일 18시까지 (UTC)
동남동7kt
시정: 10km
고도 3500ft 상공 구름 많음
05일 0600시부터 (UTC)
7kt
시정: 10km
고도 3000ft 상공 구름 많음
05일 0900시부터 (UTC)
7kt
시정: 4.8km
고도 300ft 상공 흐림
박무
05일 1600시부터 (UTC)
11kt
시정: 10km
고도 1000ft 상공 흐림

TAF: KPVW 041730Z 0418/0518 11007KT P6SM BKN035 FM050600 18007KT P6SM BKN030 FM050900 18007KT 3SM BR OVC003 FM051600 18011KT P6SM OVC010

4,000개 이상의 공항 관측 자료 및 예보 (METAR 및 TAF 보고).

지도상에서 검색 가능한 기상관측소가 노란 점과 빨간 점으로 표시되어 있습니다.

기상관측소 명을 보려면 표시 위로 마우스를 이동하세요.

날씨 관측과 예보를 보려면 클릭하세요.

지도 변경 : 확대하려면 엑스 표시가 있는 녹색 버튼, 축소하려면 빼기 표시가 있는 녹색 버튼, 다음 페이지의 지도를 보려면 녹색 화살표를 클릭하세요.


METAR-TAF: